Time;durP1;ratioP1;P1;durP2;ratioP2;P2;SDS_P1;SDS_P2;PMS_P1;PMS_P2;Temp;Humidity;BMP_temperature;BMP_pressure;BME280_temperature;BME280_humidity;BME280_pressure;Samples;Min_cycle;Max_cycle;Signal;HPM_P1;HPM_P2
2023/04/03 00:01:11;;;;;;;1.70;1.60;;;;;;;;;;6126792;23;20013;-92
2023/04/03 00:03:41;;;;;;;1.92;1.83;;;;;;;;;;6126398;23;20065;-94
2023/04/03 00:06:08;;;;;;;1.70;1.60;;;;;;;;;;6126455;23;20002;-94
2023/04/03 00:08:34;;;;;;;1.77;1.67;;;;;;;;;;6102189;23;20010;-94
2023/04/03 00:11:11;;;;;;;1.60;1.50;;;;;;;;;;6126583;23;20414;-93
2023/04/03 00:13:37;;;;;;;1.80;1.70;;;;;;;;;;6102317;23;20333;-94
2023/04/03 00:16:03;;;;;;;2.42;1.90;;;;;;;;;;6126588;23;20003;-94
2023/04/03 00:18:31;;;;;;;1.90;1.67;;;;;;;;;;6101439;23;20057;-95
2023/04/03 00:21:00;;;;;;;1.60;1.50;;;;;;;;;;6104804;23;20014;-94
2023/04/03 00:23:25;;;;;;;1.70;1.40;;;;;;;;;;6105288;23;20013;-94
2023/04/03 00:25:51;;;;;;;1.65;1.55;;;;;;;;;;6105654;23;20472;-93
2023/04/03 00:28:17;;;;;;;1.42;1.42;;;;;;;;;;6105410;23;20040;-93
2023/04/03 00:30:44;;;;;;;1.58;1.48;;;;;;;;;;6105088;23;20010;-93
2023/04/03 00:33:15;;;;;;;1.25;1.20;;;;;;;;;;6129806;23;20010;-94
2023/04/03 00:35:43;;;;;;;1.63;1.52;;;;;;;;;;6105430;23;20053;-93
2023/04/03 00:38:11;;;;;;;1.50;1.40;;;;;;;;;;6104885;23;20010;-94
2023/04/03 00:40:38;;;;;;;1.52;1.42;;;;;;;;;;6105174;23;20036;-94
2023/04/03 00:43:18;;;;;;;1.58;1.48;;;;;;;;;;6129780;23;20002;-93
2023/04/03 00:45:45;;;;;;;1.65;1.55;;;;;;;;;;6129845;23;20014;-93
2023/04/03 00:48:18;;;;;;;1.38;1.27;;;;;;;;;;6105687;23;20009;-94
2023/04/03 00:50:44;;;;;;;1.38;1.33;;;;;;;;;;6129585;23;20306;-94
2023/04/03 00:53:17;;;;;;;1.70;1.60;;;;;;;;;;6129761;23;20037;-93
2023/04/03 00:55:49;;;;;;;1.83;1.73;;;;;;;;;;6104659;23;20006;-93
2023/04/03 00:58:18;;;;;;;1.55;1.50;;;;;;;;;;6129466;23;20058;-94
2023/04/03 01:00:46;;;;;;;1.80;1.70;;;;;;;;;;6104857;23;20010;-93
2023/04/03 01:03:23;;;;;;;1.67;1.58;;;;;;;;;;6105895;23;20433;-93
2023/04/03 01:06:12;;;;;;;1.60;1.50;;;;;;;;;;6127812;23;20084;-94
2023/04/03 01:08:41;;;;;;;1.80;1.70;;;;;;;;;;6105762;23;20065;-95
2023/04/03 01:11:06;;;;;;;1.85;1.75;;;;;;;;;;6104912;23;20006;-94
2023/04/03 01:13:32;;;;;;;1.98;1.88;;;;;;;;;;6105126;23;20660;-94
2023/04/03 01:16:03;;;;;;;2.35;2.25;;;;;;;;;;6104799;23;20010;-96
2023/04/03 01:18:30;;;;;;;2.33;2.22;;;;;;;;;;6129513;23;20081;-95
2023/04/03 01:21:02;;;;;;;2.55;2.42;;;;;;;;;;6104827;23;20421;-96
2023/04/03 01:23:54;;;;;;;2.78;2.58;;;;;;;;;;6105817;23;20010;-94
2023/04/03 01:26:19;;;;;;;2.22;2.03;;;;;;;;;;6104999;23;20425;-94
2023/04/03 02:16:41;;;;;;;3.00;2.80;;;;;;;;;;5738824;24;20062;-96
2023/04/03 02:19:29;;;;;;;2.92;2.72;;;;;;;;;;5734916;24;20092;-96
2023/04/03 02:22:52;;;;;;;;;;;;;;;;;;;;;
2023/04/03 02:39:46;;;;;;;2.50;2.40;;;;;;;;;;5793658;24;20027;-96
2023/04/03 02:42:58;;;;;;;2.15;2.05;;;;;;;;;;5859867;24;20067;-95
2023/04/03 02:45:49;;;;;;;1.98;1.88;;;;;;;;;;5873201;24;20022;-96
2023/04/03 02:49:03;;;;;;;2.38;2.25;;;;;;;;;;6086579;23;20010;-95
2023/04/03 03:27:40;;;;;;;2.55;2.45;;;;;;;;;;5071474;28;20461;-63
2023/04/03 03:30:06;;;;;;;2.03;1.80;;;;;;;;;;5071447;28;20048;-64
2023/04/03 03:32:32;;;;;;;2.47;2.28;;;;;;;;;;5069791;28;20068;-65
2023/04/03 03:34:58;;;;;;;2.33;2.13;;;;;;;;;;5071288;28;20424;-65
2023/04/03 03:37:23;;;;;;;2.17;2.03;;;;;;;;;;5071288;28;20450;-64
2023/04/03 03:39:52;;;;;;;2.20;2.00;;;;;;;;;;5069566;28;20017;-63
2023/04/03 03:42:17;;;;;;;2.30;2.20;;;;;;;;;;5069569;28;20035;-65
2023/04/03 03:44:42;;;;;;;2.35;2.25;;;;;;;;;;5070845;28;20017;-65
2023/04/03 03:47:10;;;;;;;2.13;1.92;;;;;;;;;;5070898;28;20103;-62
2023/04/03 03:49:36;;;;;;;2.00;1.90;;;;;;;;;;5069193;28;20039;-61
2023/04/03 03:52:01;;;;;;;1.58;1.48;;;;;;;;;;5070505;28;20467;-61
2023/04/03 03:54:27;;;;;;;2.25;2.08;;;;;;;;;;5069762;28;20032;-62
2023/04/03 03:56:52;;;;;;;2.30;2.20;;;;;;;;;;5070928;28;20033;-62
2023/04/03 03:59:18;;;;;;;1.70;1.60;;;;;;;;;;5069137;28;20031;-62
2023/04/03 04:01:44;;;;;;;1.80;1.70;;;;;;;;;;5069191;28;20024;-61
2023/04/03 04:04:11;;;;;;;2.45;2.22;;;;;;;;;;5069134;28;20029;-61
2023/04/03 04:06:36;;;;;;;1.80;1.70;;;;;;;;;;5069551;28;20033;-62
2023/04/03 04:09:04;;;;;;;1.52;1.42;;;;;;;;;;5069580;28;20474;-62
2023/04/03 04:11:32;;;;;;;2.00;1.90;;;;;;;;;;5068809;28;20040;-61
2023/04/03 04:13:58;;;;;;;1.70;1.60;;;;;;;;;;5069124;28;20028;-61
2023/04/03 04:16:26;;;;;;;4.78;3.15;;;;;;;;;;5068266;28;20090;-61
2023/04/03 04:18:53;;;;;;;2.47;2.28;;;;;;;;;;5069844;28;20060;-62
2023/04/03 04:21:19;;;;;;;1.80;1.70;;;;;;;;;;5068363;28;20036;-61
2023/04/03 04:23:45;;;;;;;3.33;2.10;;;;;;;;;;5068352;28;20070;-59
2023/04/03 04:26:12;;;;;;;1.38;1.27;;;;;;;;;;5068321;28;20040;-61
2023/04/03 04:28:38;;;;;;;2.28;1.60;;;;;;;;;;5068522;28;20471;-61
2023/04/03 04:31:05;;;;;;;1.83;1.60;;;;;;;;;;5068576;28;20028;-62
2023/04/03 04:33:30;;;;;;;1.23;1.13;;;;;;;;;;5068945;28;20036;-61
2023/04/03 04:35:58;;;;;;;1.67;1.58;;;;;;;;;;5052080;28;20031;-61
2023/04/03 04:38:24;;;;;;;4.22;1.45;;;;;;;;;;5058505;28;20040;-61
2023/04/03 04:40:52;;;;;;;2.30;2.10;;;;;;;;;;5054735;28;20036;-61
2023/04/03 04:43:17;;;;;;;1.67;1.58;;;;;;;;;;5055523;28;20043;-61
2023/04/03 04:45:45;;;;;;;2.25;2.05;;;;;;;;;;5038661;28;20029;-72
2023/04/03 04:48:11;;;;;;;1.63;1.52;;;;;;;;;;5054895;28;20036;-71
2023/04/03 04:50:37;;;;;;;3.53;1.75;;;;;;;;;;5055389;28;20017;-69
2023/04/03 04:53:04;;;;;;;1.65;1.55;;;;;;;;;;5038622;28;20021;-67
2023/04/03 04:55:29;;;;;;;1.60;1.50;;;;;;;;;;5056608;28;20104;-68
2023/04/03 04:57:55;;;;;;;1.90;1.67;;;;;;;;;;5055282;28;20104;-68
2023/04/03 05:00:21;;;;;;;12.30;10.23;;;;;;;;;;5055034;28;20087;-68
2023/04/03 05:02:46;;;;;;;3.97;3.53;;;;;;;;;;5054811;28;20029;-67
2023/04/03 05:05:12;;;;;;;3.83;3.22;;;;;;;;;;5054898;28;20125;-67
2023/04/03 05:07:37;;;;;;;5.97;5.57;;;;;;;;;;5054698;28;20033;-66
2023/04/03 05:10:03;;;;;;;4.13;3.50;;;;;;;;;;5056436;28;20036;-66
2023/04/03 05:12:29;;;;;;;2.55;2.35;;;;;;;;;;5055823;28;20017;-67
2023/04/03 05:14:58;;;;;;;3.05;2.78;;;;;;;;;;5055155;28;20032;-66
2023/04/03 05:17:25;;;;;;;3.40;3.10;;;;;;;;;;5054439;28;20040;-67
2023/04/03 05:19:55;;;;;;;3.20;3.00;;;;;;;;;;5054146;28;20109;-68
2023/04/03 05:22:22;;;;;;;29.02;16.40;;;;;;;;;;5054312;28;20498;-67
2023/04/03 05:24:48;;;;;;;44.15;34.83;;;;;;;;;;5054298;28;20383;-68
2023/04/03 05:27:14;;;;;;;8.90;8.05;;;;;;;;;;5053443;28;20073;-67
2023/04/03 05:29:43;;;;;;;12.38;7.90;;;;;;;;;;5054255;28;20025;-67
2023/04/03 05:32:12;;;;;;;96.82;41.85;;;;;;;;;;5054755;28;20486;-67
2023/04/03 05:34:37;;;;;;;166.63;69.28;;;;;;;;;;5054401;28;20025;-67
2023/04/03 05:37:04;;;;;;;91.00;37.28;;;;;;;;;;5054763;28;20130;-68
2023/04/03 05:39:31;;;;;;;60.22;27.95;;;;;;;;;;5054352;28;20106;-67
2023/04/03 05:41:58;;;;;;;49.75;23.90;;;;;;;;;;5055385;28;20032;-67
2023/04/03 05:44:24;;;;;;;46.97;17.73;;;;;;;;;;5055305;28;20035;-68
2023/04/03 05:46:50;;;;;;;49.10;17.23;;;;;;;;;;5054386;28;20037;-67
2023/04/03 05:49:15;;;;;;;51.88;21.52;;;;;;;;;;5053081;28;20450;-68
2023/04/03 05:51:41;;;;;;;25.98;10.82;;;;;;;;;;5055186;28;20029;-67
2023/04/03 05:54:20;;;;;;;82.22;32.80;;;;;;;;;;5052183;28;20134;-67
2023/04/03 05:56:46;;;;;;;50.28;18.15;;;;;;;;;;5053568;28;20037;-67
2023/04/03 05:59:11;;;;;;;44.42;17.08;;;;;;;;;;5053659;28;20033;-67
2023/04/03 06:01:37;;;;;;;67.50;24.67;;;;;;;;;;5054496;28;20029;-67
2023/04/03 06:04:03;;;;;;;46.58;15.50;;;;;;;;;;5051752;28;20391;-67
2023/04/03 06:06:48;;;;;;;26.55;8.90;;;;;;;;;;5051844;28;20067;-68
2023/04/03 06:09:13;;;;;;;91.30;29.42;;;;;;;;;;5051427;28;20524;-67
2023/04/03 06:11:39;;;;;;;48.63;14.98;;;;;;;;;;5051405;28;20033;-67
2023/04/03 06:14:04;;;;;;;75.43;25.65;;;;;;;;;;5052598;28;20013;-67
2023/04/03 06:16:29;;;;;;;46.67;17.73;;;;;;;;;;5051435;28;20060;-67
2023/04/03 06:18:56;;;;;;;41.88;13.40;;;;;;;;;;5053950;28;20386;-67
2023/04/03 06:21:22;;;;;;;45.13;15.35;;;;;;;;;;5053217;28;20039;-67
2023/04/03 06:23:47;;;;;;;34.80;13.73;;;;;;;;;;5054442;28;20370;-67
2023/04/03 06:26:13;;;;;;;23.70;8.73;;;;;;;;;;5054250;28;20037;-67
2023/04/03 06:28:38;;;;;;;31.73;12.85;;;;;;;;;;5054645;28;20025;-67
2023/04/03 06:31:03;;;;;;;25.20;9.98;;;;;;;;;;5054289;28;20032;-67
2023/04/03 06:33:28;;;;;;;17.38;6.78;;;;;;;;;;5054528;28;20040;-67
2023/04/03 06:35:57;;;;;;;20.75;9.18;;;;;;;;;;5054209;28;20068;-67
2023/04/03 06:38:23;;;;;;;16.75;8.50;;;;;;;;;;5053292;28;20360;-67
2023/04/03 06:40:48;;;;;;;15.55;8.50;;;;;;;;;;5054128;28;20025;-67
2023/04/03 06:43:14;;;;;;;6.72;4.07;;;;;;;;;;5054105;28;20107;-67
2023/04/03 06:45:39;;;;;;;13.70;8.88;;;;;;;;;;5054304;28;20029;-67
2023/04/03 06:48:05;;;;;;;13.82;7.95;;;;;;;;;;5054569;28;20108;-67
2023/04/03 06:50:30;;;;;;;16.08;9.30;;;;;;;;;;5054267;28;20037;-67
2023/04/03 06:52:56;;;;;;;8.07;4.47;;;;;;;;;;5054245;28;20013;-67
2023/04/03 06:55:21;;;;;;;7.68;5.30;;;;;;;;;;5053903;28;20416;-67
2023/04/03 06:57:47;;;;;;;21.10;11.70;;;;;;;;;;5053909;28;20115;-67
2023/04/03 07:00:13;;;;;;;7.47;5.35;;;;;;;;;;5053854;28;20021;-67
2023/04/03 07:02:38;;;;;;;7.13;5.32;;;;;;;;;;5054060;28;20033;-67
2023/04/03 07:05:03;;;;;;;4.55;3.92;;;;;;;;;;5053808;28;20028;-67
2023/04/03 07:07:29;;;;;;;16.27;8.57;;;;;;;;;;5053929;28;20383;-67
2023/04/03 07:09:54;;;;;;;7.93;4.97;;;;;;;;;;5053670;28;20098;-67
2023/04/03 07:12:19;;;;;;;4.65;2.92;;;;;;;;;;5053711;28;20027;-67
2023/04/03 07:14:45;;;;;;;4.93;2.92;;;;;;;;;;5052374;28;20467;-67
2023/04/03 07:17:10;;;;;;;4.15;2.97;;;;;;;;;;5053684;28;20043;-66
2023/04/03 07:19:36;;;;;;;5.28;4.10;;;;;;;;;;5053569;28;20013;-67
2023/04/03 07:22:01;;;;;;;5.65;4.25;;;;;;;;;;5054149;28;20125;-67
2023/04/03 07:24:26;;;;;;;7.70;4.07;;;;;;;;;;5053854;28;20044;-67
2023/04/03 07:26:52;;;;;;;9.75;5.18;;;;;;;;;;5053522;28;20087;-67
2023/04/03 07:29:18;;;;;;;9.93;5.50;;;;;;;;;;5053777;28;20039;-67
2023/04/03 07:31:44;;;;;;;7.70;6.88;;;;;;;;;;5053737;28;20025;-67
2023/04/03 07:34:10;;;;;;;11.30;5.97;;;;;;;;;;5053988;28;20025;-67
2023/04/03 07:36:35;;;;;;;15.00;10.52;;;;;;;;;;5053396;28;20032;-67
2023/04/03 07:39:01;;;;;;;15.82;10.07;;;;;;;;;;5053972;28;20601;-66
2023/04/03 07:41:26;;;;;;;19.05;9.38;;;;;;;;;;5053677;28;20029;-67
2023/04/03 07:43:52;;;;;;;9.70;8.70;;;;;;;;;;5052120;28;20033;-67
2023/04/03 07:46:18;;;;;;;134.05;110.00;;;;;;;;;;5053560;28;20087;-67
2023/04/03 07:48:43;;;;;;;26.50;20.45;;;;;;;;;;5053654;28;20033;-67
2023/04/03 07:51:10;;;;;;;33.95;24.10;;;;;;;;;;5053351;28;20032;-57
2023/04/03 07:53:35;;;;;;;27.20;20.98;;;;;;;;;;5053567;28;20024;-57
2023/04/03 07:56:02;;;;;;;23.40;13.60;;;;;;;;;;5053308;28;20367;-57
2023/04/03 07:58:29;;;;;;;9.65;5.55;;;;;;;;;;5053255;28;20037;-57
2023/04/03 08:00:54;;;;;;;3.55;3.00;;;;;;;;;;5053780;28;20039;-57
2023/04/03 08:03:20;;;;;;;5.72;3.70;;;;;;;;;;5053558;28;20116;-59
2023/04/03 08:05:47;;;;;;;4.30;3.90;;;;;;;;;;5053113;28;20033;-59
2023/04/03 08:08:13;;;;;;;7.53;4.80;;;;;;;;;;5053417;28;20384;-59
2023/04/03 08:10:39;;;;;;;5.20;3.80;;;;;;;;;;5053131;28;20029;-59
2023/04/03 08:13:05;;;;;;;4.32;3.22;;;;;;;;;;5054565;28;20067;-59
2023/04/03 08:15:31;;;;;;;5.88;4.43;;;;;;;;;;5056311;28;20033;-59
2023/04/03 08:17:57;;;;;;;3.03;2.53;;;;;;;;;;5056855;28;20025;-59
2023/04/03 08:20:22;;;;;;;5.78;5.00;;;;;;;;;;5057062;28;20028;-59
2023/04/03 08:22:47;;;;;;;12.43;9.23;;;;;;;;;;5062830;23;20557;-59
2023/04/03 08:25:13;;;;;;;4.30;3.47;;;;;;;;;;5043839;23;20144;-59
2023/04/03 08:27:38;;;;;;;10.15;6.93;;;;;;;;;;5056851;22;20041;-59
2023/04/03 08:30:06;;;;;;;6.82;5.32;;;;;;;;;;5057049;22;20117;-59
2023/04/03 08:32:35;;;;;;;5.18;4.35;;;;;;;;;;5061170;23;20057;-67
2023/04/03 08:35:02;;;;;;;3.30;2.77;;;;;;;;;;5038003;22;20054;-67
2023/04/03 08:37:28;;;;;;;6.18;4.65;;;;;;;;;;5017046;28;20268;-67
2023/04/03 08:39:53;;;;;;;4.47;3.25;;;;;;;;;;5016764;28;20030;-67
2023/04/03 08:42:19;;;;;;;3.70;3.38;;;;;;;;;;5016964;28;20383;-67
2023/04/03 08:45:08;;;;;;;4.13;3.83;;;;;;;;;;5016604;28;20042;-67
2023/04/03 08:47:38;;;;;;;3.50;2.70;;;;;;;;;;5008811;28;20057;-67
2023/04/03 08:50:15;;;;;;;3.55;2.88;;;;;;;;;;5016811;28;20057;-67
2023/04/03 08:52:48;;;;;;;2.38;2.13;;;;;;;;;;5016471;28;20045;-67
2023/04/03 08:55:31;;;;;;;3.67;3.30;;;;;;;;;;5016722;28;20041;-67
2023/04/03 08:58:05;;;;;;;3.47;3.03;;;;;;;;;;5015137;28;20503;-67
2023/04/03 09:00:48;;;;;;;3.83;2.00;;;;;;;;;;5016334;28;20034;-67
2023/04/03 09:03:15;;;;;;;4.28;3.97;;;;;;;;;;5031872;28;20022;-67
2023/04/03 09:05:53;;;;;;;2.72;2.17;;;;;;;;;;5016436;28;20038;-67
2023/04/03 09:08:23;;;;;;;3.40;3.05;;;;;;;;;;5031507;28;20041;-67
2023/04/03 09:10:49;;;;;;;5.65;4.60;;;;;;;;;;5016414;28;20026;-67
2023/04/03 09:13:31;;;;;;;6.15;4.95;;;;;;;;;;5016107;28;20022;-67
2023/04/03 09:15:56;;;;;;;7.47;4.85;;;;;;;;;;5016302;28;20056;-67
2023/04/03 09:18:45;;;;;;;7.78;5.80;;;;;;;;;;5014756;28;20037;-67
2023/04/03 09:21:16;;;;;;;4.85;3.15;;;;;;;;;;5016234;28;20037;-67
2023/04/03 09:23:44;;;;;;;6.65;3.70;;;;;;;;;;5016073;28;20034;-67
2023/04/03 09:26:14;;;;;;;25.17;13.15;;;;;;;;;;5015785;28;20045;-67
2023/04/03 09:28:41;;;;;;;31.75;17.02;;;;;;;;;;5016323;28;20026;-67
2023/04/03 09:31:36;;;;;;;12.15;6.28;;;;;;;;;;5015762;28;20064;-67
2023/04/03 09:34:03;;;;;;;4.93;3.72;;;;;;;;;;5016003;28;20084;-67
2023/04/03 09:36:45;;;;;;;21.13;13.60;;;;;;;;;;5015281;28;20056;-67
2023/04/03 09:39:12;;;;;;;6.85;4.70;;;;;;;;;;5016176;28;20034;-67
2023/04/03 09:41:37;;;;;;;3.65;3.13;;;;;;;;;;5015890;28;20017;-67
2023/04/03 09:44:03;;;;;;;9.02;6.82;;;;;;;;;;5015467;28;20036;-67
2023/04/03 09:46:30;;;;;;;7.47;3.95;;;;;;;;;;5031010;28;20038;-67
2023/04/03 09:49:00;;;;;;;4.75;4.05;;;;;;;;;;5015436;28;20034;-67
2023/04/03 09:51:29;;;;;;;6.00;4.63;;;;;;;;;;5015713;28;20026;-67
2023/04/03 09:53:55;;;;;;;8.05;5.18;;;;;;;;;;5015362;28;20245;-67
2023/04/03 09:56:28;;;;;;;6.18;4.85;;;;;;;;;;5014073;28;20041;-67
2023/04/03 09:58:59;;;;;;;1.38;1.27;;;;;;;;;;5015828;28;20452;-67
2023/04/03 10:01:26;;;;;;;3.55;3.25;;;;;;;;;;5015211;28;20034;-67
2023/04/03 10:04:05;;;;;;;4.40;4.00;;;;;;;;;;5030528;28;20025;-67
2023/04/03 10:06:32;;;;;;;14.55;8.88;;;;;;;;;;5015336;28;20072;-67
2023/04/03 10:09:05;;;;;;;10.70;8.30;;;;;;;;;;5015384;28;20113;-67
2023/04/03 10:11:30;;;;;;;5.32;4.32;;;;;;;;;;5015248;28;20088;-67
2023/04/03 10:13:59;;;;;;;7.78;6.30;;;;;;;;;;5014981;28;20106;-67
2023/04/03 10:16:40;;;;;;;9.63;8.63;;;;;;;;;;5015197;28;20044;-67
2023/04/03 10:19:11;;;;;;;5.75;4.93;;;;;;;;;;5015189;28;20041;-67
2023/04/03 10:21:48;;;;;;;4.28;3.88;;;;;;;;;;5015365;28;20418;-67
2023/04/03 10:24:18;;;;;;;4.22;3.92;;;;;;;;;;5014799;28;20109;-67
2023/04/03 10:26:43;;;;;;;2.80;2.60;;;;;;;;;;5013840;28;20038;-67
2023/04/03 10:29:27;;;;;;;3.35;2.75;;;;;;;;;;5014689;28;20041;-67
2023/04/03 10:31:58;;;;;;;6.97;3.88;;;;;;;;;;5014694;28;20456;-67
2023/04/03 10:34:38;;;;;;;3.58;3.35;;;;;;;;;;5014917;28;20465;-67
2023/04/03 10:37:08;;;;;;;3.60;1.97;;;;;;;;;;5013990;28;20121;-67
2023/04/03 10:39:45;;;;;;;5.63;3.90;;;;;;;;;;5014557;28;20038;-67
2023/04/03 10:42:22;;;;;;;5.38;4.60;;;;;;;;;;5014844;28;20062;-66
2023/04/03 10:44:48;;;;;;;5.15;3.63;;;;;;;;;;5014751;28;20053;-67
2023/04/03 10:47:31;;;;;;;4.72;2.63;;;;;;;;;;5014364;28;20038;-67
2023/04/03 10:49:56;;;;;;;5.70;5.20;;;;;;;;;;5014392;28;20457;-67
2023/04/03 10:52:27;;;;;;;2.38;1.90;;;;;;;;;;5013121;28;20101;-67
2023/04/03 10:55:11;;;;;;;3.85;2.17;;;;;;;;;;5014624;28;20026;-67
2023/04/03 10:57:37;;;;;;;3.28;2.97;;;;;;;;;;5014259;28;20033;-67
2023/04/03 11:00:18;;;;;;;3.95;3.10;;;;;;;;;;5014548;28;20528;-67
2023/04/03 11:02:43;;;;;;;;;;;;;;;;;;5014901;28;20034;-67
2023/04/03 11:05:27;;;;;;;3.20;2.10;;;;;;;;;;5029323;28;19909;-67
2023/04/03 11:07:53;;;;;;;6.57;5.35;;;;;;;;;;5014424;28;20034;-67
2023/04/03 11:10:19;;;;;;;4.90;3.05;;;;;;;;;;5014048;28;20381;-67
2023/04/03 11:12:52;;;;;;;3.13;2.28;;;;;;;;;;5014061;28;20117;-67
2023/04/03 11:15:19;;;;;;;3.08;2.50;;;;;;;;;;5014570;28;20080;-67
2023/04/03 11:17:51;;;;;;;2.28;2.08;;;;;;;;;;5029230;28;20502;-67
2023/04/03 11:20:32;;;;;;;6.63;3.70;;;;;;;;;;5013989;28;20045;-67
2023/04/03 11:23:03;;;;;;;3.97;3.67;;;;;;;;;;5014486;28;20021;-67
2023/04/03 11:25:30;;;;;;;3.30;2.35;;;;;;;;;;5014118;28;20407;-67
2023/04/03 11:28:01;;;;;;;2.28;2.08;;;;;;;;;;5013908;28;20049;-67
2023/04/03 11:30:29;;;;;;;5.40;4.70;;;;;;;;;;5014392;28;20036;-67
2023/04/03 11:32:57;;;;;;;2.42;2.22;;;;;;;;;;5014192;28;20022;-67
2023/04/03 11:35:23;;;;;;;4.03;2.10;;;;;;;;;;5013643;28;20080;-67
2023/04/03 11:37:51;;;;;;;3.28;2.72;;;;;;;;;;5012559;28;20064;-67
2023/04/03 11:40:19;;;;;;;2.10;1.85;;;;;;;;;;5014346;28;20049;-67
2023/04/03 11:42:49;;;;;;;1.60;1.50;;;;;;;;;;5014011;28;20022;-67
2023/04/03 11:45:24;;;;;;;9.53;7.00;;;;;;;;;;5013785;28;20497;-67
2023/04/03 11:48:07;;;;;;;5.53;4.15;;;;;;;;;;5015094;28;20635;-67
2023/04/03 11:50:38;;;;;;;5.22;4.25;;;;;;;;;;5018258;28;20079;-67
2023/04/03 11:53:23;;;;;;;5.10;4.60;;;;;;;;;;5017622;28;20034;-67
2023/04/03 11:55:48;;;;;;;1.90;1.80;;;;;;;;;;5032737;28;20034;-67
2023/04/03 11:58:15;;;;;;;2.90;1.63;;;;;;;;;;5017850;28;20026;-67
2023/04/03 12:00:47;;;;;;;1.80;1.70;;;;;;;;;;5017798;28;20592;-67
2023/04/03 12:03:30;;;;;;;4.90;2.25;;;;;;;;;;5018012;28;20365;-67
2023/04/03 12:06:05;;;;;;;16.17;9.15;;;;;;;;;;5017850;28;20041;-67
2023/04/03 12:08:33;;;;;;;3.95;3.20;;;;;;;;;;5017366;28;20079;-67
2023/04/03 12:11:08;;;;;;;2.83;1.80;;;;;;;;;;5017541;28;20014;-67
2023/04/03 12:13:34;;;;;;;3.92;3.45;;;;;;;;;;5017522;28;20034;-67
2023/04/03 12:16:00;;;;;;;6.15;5.38;;;;;;;;;;5017198;28;20030;-67
2023/04/03 12:18:55;;;;;;;12.57;8.43;;;;;;;;;;5017679;28;20029;-67
2023/04/03 12:21:21;;;;;;;2.97;2.78;;;;;;;;;;4994946;28;20053;-67
2023/04/03 12:24:05;;;;;;;2.03;1.83;;;;;;;;;;5017330;28;20040;-67
2023/04/03 12:26:34;;;;;;;5.07;3.88;;;;;;;;;;5017214;28;20034;-67
2023/04/03 12:29:02;;;;;;;3.33;2.70;;;;;;;;;;5015740;28;20034;-67
2023/04/03 12:31:37;;;;;;;3.25;2.90;;;;;;;;;;5016921;28;20095;-67
2023/04/03 12:34:20;;;;;;;2.03;1.92;;;;;;;;;;5016023;28;20491;-67
2023/04/03 12:36:54;;;;;;;3.60;2.08;;;;;;;;;;5016691;28;20050;-67
2023/04/03 12:39:33;;;;;;;3.35;2.70;;;;;;;;;;5032392;28;20100;-67
2023/04/03 12:42:22;;;;;;;6.05;4.35;;;;;;;;;;5017015;28;20033;-67
2023/04/03 12:45:07;;;;;;;3.75;3.40;;;;;;;;;;5015732;28;20109;-67
2023/04/03 12:47:37;;;;;;;4.80;3.03;;;;;;;;;;5031757;28;20034;-67
2023/04/03 12:50:23;;;;;;;2.60;1.60;;;;;;;;;;5016897;28;20399;-67
2023/04/03 12:53:04;;;;;;;2.15;0.95;;;;;;;;;;5014954;28;20038;-67
2023/04/03 12:55:29;;;;;;;1.92;1.33;;;;;;;;;;5015616;28;20033;-67
2023/04/03 12:57:55;;;;;;;2.50;2.15;;;;;;;;;;5031566;28;20029;-67
2023/04/03 13:00:28;;;;;;;2.78;2.13;;;;;;;;;;5016378;28;20044;-67
2023/04/03 13:02:54;;;;;;;2.53;2.30;;;;;;;;;;5016674;28;20396;-67
2023/04/03 13:05:20;;;;;;;1.95;1.77;;;;;;;;;;5015129;28;20040;-67
2023/04/03 13:07:52;;;;;;;1.60;1.30;;;;;;;;;;5016196;28;20399;-67
2023/04/03 13:10:18;;;;;;;5.05;4.30;;;;;;;;;;5016453;28;20025;-67
2023/04/03 13:12:51;;;;;;;3.08;2.60;;;;;;;;;;5016164;28;20034;-67
2023/04/03 13:15:24;;;;;;;8.07;4.70;;;;;;;;;;5016593;28;20034;-67
2023/04/03 13:17:52;;;;;;;7.20;4.20;;;;;;;;;;5016313;28;20081;-67
2023/04/03 13:20:26;;;;;;;2.60;1.98;;;;;;;;;;5031504;28;20134;-66
2023/04/03 13:22:56;;;;;;;3.38;2.67;;;;;;;;;;5016220;28;20435;-67
2023/04/03 13:25:23;;;;;;;13.13;6.90;;;;;;;;;;5016237;28;20034;-67
2023/04/03 13:27:49;;;;;;;25.30;12.40;;;;;;;;;;5016090;28;20454;-67
2023/04/03 13:30:29;;;;;;;4.72;4.22;;;;;;;;;;5016118;28;20061;-67
2023/04/03 13:32:56;;;;;;;15.95;9.45;;;;;;;;;;5015605;28;20476;-66
2023/04/03 13:35:38;;;;;;;36.03;19.90;;;;;;;;;;5030605;28;20038;-67
2023/04/03 13:38:24;;;;;;;11.18;6.80;;;;;;;;;;5005739;28;20464;-67
2023/04/03 13:40:50;;;;;;;20.55;10.90;;;;;;;;;;5007688;28;20034;-67
2023/04/03 13:43:21;;;;;;;27.77;16.77;;;;;;;;;;5010294;28;20431;-66
2023/04/03 13:45:53;;;;;;;4.28;3.65;;;;;;;;;;5015077;28;20113;-66
2023/04/03 13:48:19;;;;;;;3.30;3.00;;;;;;;;;;5013525;28;20329;-66
2023/04/03 13:51:02;;;;;;;4.53;2.92;;;;;;;;;;5015004;28;20030;-66
2023/04/03 13:53:29;;;;;;;5.25;3.25;;;;;;;;;;5009240;28;20097;-66
2023/04/03 13:56:04;;;;;;;5.85;5.30;;;;;;;;;;5006514;28;20044;-66
2023/04/03 13:58:30;;;;;;;5.30;4.32;;;;;;;;;;5001796;28;20030;-65
2023/04/03 14:00:59;;;;;;;7.38;5.43;;;;;;;;;;5004087;28;20485;-65
2023/04/03 14:03:24;;;;;;;5.88;4.72;;;;;;;;;;5003775;28;20039;-65
2023/04/03 14:05:50;;;;;;;3.13;2.92;;;;;;;;;;5007611;28;20088;-66
2023/04/03 14:08:16;;;;;;;22.27;5.70;;;;;;;;;;5003041;28;20022;-65
2023/04/03 14:10:41;;;;;;;12.70;5.40;;;;;;;;;;5005026;28;20030;-66
2023/04/03 14:13:09;;;;;;;15.98;8.13;;;;;;;;;;5003548;28;20032;-66
2023/04/03 14:15:34;;;;;;;17.83;8.70;;;;;;;;;;5003839;28;20038;-65
2023/04/03 14:18:00;;;;;;;19.13;8.50;;;;;;;;;;4997800;28;20069;-66
2023/04/03 14:20:26;;;;;;;15.05;6.97;;;;;;;;;;5010023;28;20391;-65
2023/04/03 14:23:08;;;;;;;15.70;8.57;;;;;;;;;;5013187;28;20040;-65
2023/04/03 14:25:34;;;;;;;15.15;9.23;;;;;;;;;;5029700;28;20061;-65
2023/04/03 14:28:00;;;;;;;4.22;3.83;;;;;;;;;;5014491;28;20392;-66
2023/04/03 14:30:26;;;;;;;5.95;4.72;;;;;;;;;;5014471;28;20041;-66
2023/04/03 14:32:52;;;;;;;7.45;5.57;;;;;;;;;;5014942;28;20488;-66
2023/04/03 14:35:18;;;;;;;7.80;4.78;;;;;;;;;;5014620;28;20041;-66
2023/04/03 14:37:44;;;;;;;12.52;7.70;;;;;;;;;;5014256;28;20029;-65
2023/04/03 14:40:13;;;;;;;3.80;2.47;;;;;;;;;;5012772;28;20025;-66
2023/04/03 14:42:38;;;;;;;3.22;2.85;;;;;;;;;;5014881;28;20038;-65
2023/04/03 14:45:06;;;;;;;5.90;4.25;;;;;;;;;;5014912;28;20036;-65
2023/04/03 14:47:31;;;;;;;5.00;3.67;;;;;;;;;;5013318;28;20028;-65
2023/04/03 14:49:57;;;;;;;8.45;6.80;;;;;;;;;;5012988;28;20091;-66
2023/04/03 14:52:23;;;;;;;8.45;4.32;;;;;;;;;;5014315;28;20543;-66
2023/04/03 14:54:50;;;;;;;3.70;2.33;;;;;;;;;;5014612;28;20472;-65
2023/04/03 14:57:16;;;;;;;12.95;8.02;;;;;;;;;;5014269;28;20515;-66
2023/04/03 14:59:42;;;;;;;12.93;6.90;;;;;;;;;;5013510;28;20469;-66
2023/04/03 15:02:16;;;;;;;7.70;6.07;;;;;;;;;;5013628;28;20030;-66
2023/04/03 15:04:41;;;;;;;60.47;23.65;;;;;;;;;;5012753;28;20026;-66
2023/04/03 15:07:08;;;;;;;43.67;24.20;;;;;;;;;;5013646;28;20072;-65
2023/04/03 15:09:35;;;;;;;73.10;32.47;;;;;;;;;;5013807;28;20014;-65
2023/04/03 15:12:00;;;;;;;24.55;20.55;;;;;;;;;;5013738;28;20080;-65
2023/04/03 15:14:26;;;;;;;18.73;9.98;;;;;;;;;;5014521;28;20013;-65
2023/04/03 15:16:51;;;;;;;7.50;4.55;;;;;;;;;;5014050;28;20120;-65
2023/04/03 15:19:16;;;;;;;3.20;2.25;;;;;;;;;;5012868;28;20114;-65
2023/04/03 15:21:42;;;;;;;9.02;6.15;;;;;;;;;;5012929;28;20033;-65
2023/04/03 15:24:08;;;;;;;13.85;9.10;;;;;;;;;;5014178;28;20121;-66
2023/04/03 15:26:33;;;;;;;3.30;3.00;;;;;;;;;;5014160;28;20418;-65
2023/04/03 15:28:59;;;;;;;7.93;5.20;;;;;;;;;;5012645;28;20026;-65
2023/04/03 15:31:24;;;;;;;3.42;2.83;;;;;;;;;;5013062;28;20562;-65
2023/04/03 15:33:49;;;;;;;19.17;10.30;;;;;;;;;;5014407;28;20026;-65
2023/04/03 15:36:15;;;;;;;4.75;3.95;;;;;;;;;;5013793;28;20038;-65
2023/04/03 15:38:40;;;;;;;11.88;8.20;;;;;;;;;;5014067;28;20372;-66
2023/04/03 15:41:06;;;;;;;26.55;13.23;;;;;;;;;;5014212;28;20375;-65
2023/04/03 15:43:33;;;;;;;28.02;14.68;;;;;;;;;;5012156;28;20084;-64
2023/04/03 15:45:59;;;;;;;23.60;12.25;;;;;;;;;;5012240;28;20464;-63
2023/04/03 15:48:24;;;;;;;10.25;6.60;;;;;;;;;;5010008;28;20037;-64
2023/04/03 15:50:50;;;;;;;25.27;14.18;;;;;;;;;;4994302;28;20383;-64
2023/04/03 15:53:15;;;;;;;10.40;5.53;;;;;;;;;;4999435;28;20021;-63
2023/04/03 15:55:41;;;;;;;16.33;9.55;;;;;;;;;;5013340;28;20041;-63
2023/04/03 15:58:06;;;;;;;12.93;8.90;;;;;;;;;;5010073;28;20026;-55
2023/04/03 16:00:32;;;;;;;18.80;13.90;;;;;;;;;;4992663;28;20369;-56
2023/04/03 16:03:18;;;;;;;13.70;7.80;;;;;;;;;;4993203;28;20022;-56
2023/04/03 16:05:44;;;;;;;6.40;4.85;;;;;;;;;;4993065;28;20053;-56
2023/04/03 16:08:10;;;;;;;13.20;10.13;;;;;;;;;;4993741;28;20035;-55
2023/04/03 16:10:36;;;;;;;17.65;13.40;;;;;;;;;;5008699;28;20064;-55
2023/04/03 16:13:01;;;;;;;20.73;15.07;;;;;;;;;;4993208;28;20025;-56
2023/04/03 16:15:27;;;;;;;66.68;54.30;;;;;;;;;;4993699;28;20022;-55
2023/04/03 16:17:52;;;;;;;33.90;28.25;;;;;;;;;;4993805;28;20038;-56
2023/04/03 16:20:18;;;;;;;13.35;8.90;;;;;;;;;;4993061;28;20098;-56
2023/04/03 16:22:44;;;;;;;8.85;6.72;;;;;;;;;;4991863;28;20030;-57
2023/04/03 16:25:10;;;;;;;21.17;12.80;;;;;;;;;;4995694;28;20077;-57
2023/04/03 16:27:35;;;;;;;9.27;7.80;;;;;;;;;;5012527;28;20088;-56
2023/04/03 16:30:01;;;;;;;5.47;4.93;;;;;;;;;;5012886;28;20026;-56